Time;durP1;ratioP1;P1;durP2;ratioP2;P2;SDS_P1;SDS_P2;PMS_P1;PMS_P2;Temp;Humidity;BMP_temperature;BMP_pressure;BME280_temperature;BME280_humidity;BME280_pressure;Samples;Min_cycle;Max_cycle;Signal;HPM_P1;HPM_P2
2021/09/05 00:01:25;;;;;;;4.70;3.95;;;;;;;;;;5054026;28;20029;-69
2021/09/05 00:03:51;;;;;;;5.63;3.80;;;;;;;;;;5054375;28;20049;-76
2021/09/05 00:06:17;;;;;;;6.18;4.35;;;;;;;;;;5054279;28;20071;-63
2021/09/05 00:08:43;;;;;;;5.13;3.72;;;;;;;;;;5053810;28;20052;-72
2021/09/05 00:11:09;;;;;;;4.32;3.92;;;;;;;;;;5053918;28;20029;-63
2021/09/05 00:13:35;;;;;;;5.80;4.07;;;;;;;;;;5036366;28;20489;-76
2021/09/05 00:16:01;;;;;;;4.72;3.78;;;;;;;;;;5054028;28;20103;-63
2021/09/05 00:18:27;;;;;;;5.30;4.20;;;;;;;;;;5053893;28;20029;-62
2021/09/05 00:20:53;;;;;;;5.10;4.20;;;;;;;;;;5053588;28;20033;-63
2021/09/05 00:23:19;;;;;;;6.03;4.45;;;;;;;;;;5069659;28;20084;-63
2021/09/05 00:25:45;;;;;;;4.82;3.88;;;;;;;;;;5073615;28;20020;-63
2021/09/05 00:28:11;;;;;;;5.25;4.18;;;;;;;;;;5073475;28;20093;-63
2021/09/05 00:30:37;;;;;;;4.15;3.75;;;;;;;;;;5073466;28;20489;-63
2021/09/05 00:33:07;;;;;;;5.55;4.28;;;;;;;;;;5073614;28;20032;-63
2021/09/05 00:35:33;;;;;;;5.20;3.83;;;;;;;;;;5073398;28;20021;-63
2021/09/05 00:37:59;;;;;;;4.80;3.67;;;;;;;;;;5058913;28;20491;-62
2021/09/05 00:40:25;;;;;;;7.78;4.47;;;;;;;;;;5035560;28;20029;-63
2021/09/05 00:42:51;;;;;;;5.88;4.30;;;;;;;;;;5053425;28;20036;-63
2021/09/05 00:45:17;;;;;;;7.65;4.90;;;;;;;;;;5053172;28;20033;-63
2021/09/05 00:47:43;;;;;;;7.85;4.57;;;;;;;;;;5053331;28;20036;-67
2021/09/05 00:50:10;;;;;;;6.53;4.30;;;;;;;;;;5035555;28;20032;-63
2021/09/05 00:52:37;;;;;;;6.35;4.80;;;;;;;;;;5052993;28;20044;-64
2021/09/05 00:55:03;;;;;;;5.57;4.18;;;;;;;;;;5052904;28;20100;-64
2021/09/05 00:57:29;;;;;;;6.13;4.07;;;;;;;;;;5052534;28;20094;-76
2021/09/05 00:59:55;;;;;;;7.82;4.82;;;;;;;;;;5053240;28;20028;-71
2021/09/05 01:02:22;;;;;;;5.15;4.22;;;;;;;;;;5053099;28;20036;-63
2021/09/05 01:04:48;;;;;;;6.82;5.15;;;;;;;;;;5053022;28;20025;-63
2021/09/05 01:07:14;;;;;;;4.70;3.53;;;;;;;;;;5053005;28;20032;-76
2021/09/05 01:09:40;;;;;;;5.55;4.05;;;;;;;;;;5052809;28;20024;-63
2021/09/05 01:12:06;;;;;;;8.65;4.22;;;;;;;;;;5052957;28;20035;-63
2021/09/05 01:14:32;;;;;;;5.22;4.05;;;;;;;;;;5052859;28;20025;-63
2021/09/05 01:16:58;;;;;;;4.70;3.80;;;;;;;;;;5052876;28;20017;-62
2021/09/05 01:19:24;;;;;;;5.10;3.90;;;;;;;;;;5052785;28;20029;-63
2021/09/05 01:21:52;;;;;;;6.60;4.03;;;;;;;;;;5052496;28;20037;-63
2021/09/05 01:24:20;;;;;;;6.22;4.38;;;;;;;;;;5052764;28;20078;-63
2021/09/05 01:26:47;;;;;;;5.15;4.15;;;;;;;;;;5052534;28;20074;-63
2021/09/05 01:29:13;;;;;;;6.68;4.28;;;;;;;;;;5052865;28;20025;-63
2021/09/05 01:31:44;;;;;;;6.93;4.60;;;;;;;;;;5052781;28;20035;-64
2021/09/05 01:34:11;;;;;;;8.27;5.13;;;;;;;;;;5052615;28;20045;-75
2021/09/05 01:36:37;;;;;;;8.55;5.05;;;;;;;;;;5052660;28;20049;-63
2021/09/05 01:39:04;;;;;;;6.75;4.85;;;;;;;;;;5052696;28;20025;-63
2021/09/05 01:41:30;;;;;;;6.88;4.13;;;;;;;;;;5052608;28;20029;-62
2021/09/05 01:43:57;;;;;;;8.52;4.13;;;;;;;;;;5052750;28;20032;-62
2021/09/05 01:46:23;;;;;;;5.38;4.20;;;;;;;;;;5034633;28;20036;-75
2021/09/05 01:48:49;;;;;;;4.82;3.85;;;;;;;;;;5052574;28;20025;-63
2021/09/05 01:51:15;;;;;;;6.28;4.72;;;;;;;;;;5052459;28;20039;-63
2021/09/05 01:53:41;;;;;;;8.05;5.43;;;;;;;;;;5052593;28;20037;-63
2021/09/05 01:56:07;;;;;;;9.93;5.90;;;;;;;;;;5052470;28;20377;-63
2021/09/05 01:58:33;;;;;;;7.28;4.63;;;;;;;;;;5052452;28;20100;-63
2021/09/05 02:00:59;;;;;;;7.78;5.32;;;;;;;;;;5052415;28;20469;-63
2021/09/05 02:03:25;;;;;;;4.15;3.22;;;;;;;;;;5052637;28;20039;-74
2021/09/05 02:05:51;;;;;;;5.47;4.18;;;;;;;;;;5052214;28;20025;-63
2021/09/05 02:08:16;;;;;;;5.05;4.30;;;;;;;;;;5035431;28;20064;-62
2021/09/05 02:10:42;;;;;;;5.05;4.20;;;;;;;;;;5055962;28;20029;-62
2021/09/05 02:13:08;;;;;;;5.53;4.45;;;;;;;;;;5055925;28;20029;-64
2021/09/05 02:15:34;;;;;;;7.97;4.82;;;;;;;;;;5056020;28;20029;-63
2021/09/05 02:18:00;;;;;;;7.82;4.53;;;;;;;;;;5055929;28;20029;-76
2021/09/05 02:20:26;;;;;;;9.02;5.95;;;;;;;;;;5055900;28;20025;-62
2021/09/05 02:22:52;;;;;;;6.22;4.70;;;;;;;;;;5068308;28;20051;-75
2021/09/05 02:25:18;;;;;;;10.18;6.13;;;;;;;;;;5075815;28;20029;-62
2021/09/05 02:27:44;;;;;;;7.40;4.70;;;;;;;;;;5075790;28;20097;-63
2021/09/05 02:30:11;;;;;;;7.35;5.03;;;;;;;;;;5075736;28;20043;-65
2021/09/05 02:32:37;;;;;;;11.13;6.30;;;;;;;;;;5075772;28;20032;-64
2021/09/05 02:35:03;;;;;;;7.82;5.28;;;;;;;;;;5075686;28;20112;-63
2021/09/05 02:37:29;;;;;;;11.90;6.32;;;;;;;;;;5075587;28;20020;-63
2021/09/05 02:39:55;;;;;;;10.25;5.20;;;;;;;;;;5075748;28;20022;-62
2021/09/05 02:42:21;;;;;;;8.55;5.97;;;;;;;;;;5075513;28;20043;-63
2021/09/05 02:44:47;;;;;;;9.00;6.22;;;;;;;;;;5075772;28;20115;-69
2021/09/05 02:47:13;;;;;;;6.82;4.60;;;;;;;;;;5075553;28;20020;-63
2021/09/05 02:49:39;;;;;;;11.50;6.32;;;;;;;;;;5075462;28;20550;-67
2021/09/05 02:52:09;;;;;;;10.15;6.10;;;;;;;;;;5075262;28;20047;-63
2021/09/05 02:54:35;;;;;;;10.80;6.40;;;;;;;;;;5075310;28;20119;-63
2021/09/05 02:57:01;;;;;;;7.65;5.00;;;;;;;;;;5057242;28;20021;-62
2021/09/05 02:59:27;;;;;;;11.07;6.50;;;;;;;;;;5075505;28;20027;-63
2021/09/05 03:01:53;;;;;;;7.15;4.78;;;;;;;;;;5075155;28;20025;-76
2021/09/05 03:04:19;;;;;;;8.10;5.40;;;;;;;;;;5057331;28;20031;-63
2021/09/05 03:06:45;;;;;;;9.25;5.95;;;;;;;;;;5057033;28;20028;-63
2021/09/05 03:09:11;;;;;;;8.45;5.53;;;;;;;;;;5057075;28;20055;-62
2021/09/05 03:11:37;;;;;;;10.68;6.30;;;;;;;;;;5075067;28;20032;-62
2021/09/05 03:14:03;;;;;;;8.23;5.90;;;;;;;;;;5075338;28;20082;-63
2021/09/05 03:16:29;;;;;;;7.65;5.60;;;;;;;;;;5057146;28;20454;-63
2021/09/05 03:18:55;;;;;;;7.65;5.40;;;;;;;;;;5057004;28;20356;-62
2021/09/05 03:21:21;;;;;;;9.95;6.93;;;;;;;;;;5074251;28;20028;-75
2021/09/05 03:23:47;;;;;;;10.77;6.32;;;;;;;;;;5074746;28;20194;-63
2021/09/05 03:26:13;;;;;;;10.38;6.03;;;;;;;;;;5074759;28;20021;-63
2021/09/05 03:28:38;;;;;;;8.43;5.80;;;;;;;;;;5075003;28;20028;-62
2021/09/05 03:31:04;;;;;;;8.00;5.70;;;;;;;;;;5074610;28;20013;-63
2021/09/05 03:33:31;;;;;;;11.25;6.38;;;;;;;;;;5074589;28;20594;-63
2021/09/05 03:35:56;;;;;;;11.15;6.50;;;;;;;;;;5074528;28;20039;-63
2021/09/05 03:38:22;;;;;;;8.63;5.43;;;;;;;;;;5074712;28;20036;-63
2021/09/05 03:40:48;;;;;;;10.23;6.50;;;;;;;;;;5074410;28;20056;-62
2021/09/05 03:43:14;;;;;;;7.85;4.93;;;;;;;;;;5074612;28;20108;-63
2021/09/05 03:45:40;;;;;;;5.25;4.25;;;;;;;;;;5074576;28;20476;-63
2021/09/05 03:48:06;;;;;;;7.85;5.32;;;;;;;;;;5074429;28;20035;-63
2021/09/05 03:50:32;;;;;;;8.52;5.75;;;;;;;;;;5074495;28;20025;-63
2021/09/05 03:52:58;;;;;;;8.25;5.20;;;;;;;;;;5074053;28;20036;-63
2021/09/05 03:55:25;;;;;;;9.52;5.93;;;;;;;;;;5074295;28;20021;-63
2021/09/05 03:57:51;;;;;;;5.72;4.55;;;;;;;;;;5073972;28;20024;-62
2021/09/05 04:00:17;;;;;;;9.18;6.13;;;;;;;;;;5074371;28;20020;-63
2021/09/05 04:02:43;;;;;;;8.98;5.70;;;;;;;;;;5074300;28;20417;-75
2021/09/05 04:05:09;;;;;;;7.78;5.57;;;;;;;;;;5055787;28;20024;-63
2021/09/05 04:07:39;;;;;;;6.57;4.80;;;;;;;;;;5074005;28;20031;-63
2021/09/05 04:10:11;;;;;;;8.52;5.15;;;;;;;;;;5073943;28;20024;-63
2021/09/05 04:12:40;;;;;;;8.90;6.82;;;;;;;;;;5073785;28;20017;-63
2021/09/05 04:15:07;;;;;;;10.65;6.07;;;;;;;;;;5073981;28;20047;-63
2021/09/05 04:17:33;;;;;;;11.82;7.18;;;;;;;;;;5073820;28;20043;-63
2021/09/05 04:19:59;;;;;;;11.30;6.28;;;;;;;;;;5073774;28;20101;-63
2021/09/05 04:22:25;;;;;;;7.68;5.30;;;;;;;;;;5064718;28;20182;-63
2021/09/05 04:24:51;;;;;;;10.80;6.40;;;;;;;;;;5053925;28;20032;-63
2021/09/05 04:27:18;;;;;;;9.00;5.70;;;;;;;;;;5053728;28;20025;-70
2021/09/05 04:29:44;;;;;;;7.32;5.18;;;;;;;;;;5054100;28;20021;-63
2021/09/05 04:32:10;;;;;;;9.23;6.50;;;;;;;;;;5052737;28;20017;-75
2021/09/05 04:34:36;;;;;;;9.27;6.20;;;;;;;;;;5053529;28;20140;-63
2021/09/05 04:37:02;;;;;;;6.47;4.63;;;;;;;;;;5035506;28;20025;-63
2021/09/05 04:39:28;;;;;;;8.85;5.70;;;;;;;;;;5035726;28;20414;-63
2021/09/05 04:41:54;;;;;;;8.40;5.45;;;;;;;;;;5035578;28;20025;-74
2021/09/05 04:44:20;;;;;;;9.90;5.80;;;;;;;;;;5053482;28;20033;-63
2021/09/05 04:46:46;;;;;;;10.65;6.72;;;;;;;;;;5053291;28;20043;-63
2021/09/05 04:49:12;;;;;;;10.40;6.15;;;;;;;;;;5053355;28;20036;-63
2021/09/05 04:51:38;;;;;;;12.18;6.68;;;;;;;;;;5053159;28;20499;-63
2021/09/05 04:54:04;;;;;;;6.60;4.32;;;;;;;;;;5053044;28;20076;-62
2021/09/05 04:56:30;;;;;;;9.20;5.30;;;;;;;;;;5053043;28;20021;-63
2021/09/05 04:58:56;;;;;;;8.27;5.78;;;;;;;;;;5053080;28;20104;-63
2021/09/05 05:01:22;;;;;;;8.48;5.65;;;;;;;;;;5053223;28;20025;-63
2021/09/05 05:03:48;;;;;;;4.82;4.05;;;;;;;;;;5053009;28;20425;-74
2021/09/05 05:06:14;;;;;;;5.68;4.68;;;;;;;;;;5052990;28;20361;-63
2021/09/05 05:08:40;;;;;;;8.75;5.25;;;;;;;;;;5053123;28;20017;-63
2021/09/05 05:11:06;;;;;;;7.63;4.38;;;;;;;;;;5053012;28;20033;-67
2021/09/05 05:13:32;;;;;;;4.10;3.60;;;;;;;;;;5053572;28;20036;-74
2021/09/05 05:15:58;;;;;;;6.60;4.35;;;;;;;;;;5035008;28;20029;-63
2021/09/05 05:18:24;;;;;;;3.88;3.30;;;;;;;;;;5052726;28;20028;-74
2021/09/05 05:20:51;;;;;;;3.60;3.30;;;;;;;;;;5052995;28;20025;-63
2021/09/05 05:23:18;;;;;;;8.70;5.25;;;;;;;;;;5052748;28;20056;-63
2021/09/05 05:25:44;;;;;;;5.18;3.70;;;;;;;;;;5053220;28;20025;-62
2021/09/05 05:28:10;;;;;;;5.93;4.38;;;;;;;;;;5052491;28;20017;-62
2021/09/05 05:30:36;;;;;;;4.95;3.83;;;;;;;;;;5052739;28;20381;-63
2021/09/05 05:33:02;;;;;;;6.95;4.25;;;;;;;;;;5052758;28;20021;-62
2021/09/05 05:35:28;;;;;;;4.95;3.95;;;;;;;;;;5052618;28;20475;-63
2021/09/05 05:37:54;;;;;;;7.20;3.90;;;;;;;;;;5052551;28;20472;-63
2021/09/05 05:40:23;;;;;;;5.30;4.28;;;;;;;;;;5053054;28;20543;-73
2021/09/05 05:42:49;;;;;;;5.43;4.25;;;;;;;;;;5035132;28;20021;-62
2021/09/05 05:45:19;;;;;;;5.95;4.63;;;;;;;;;;5056621;28;20104;-63
2021/09/05 05:47:45;;;;;;;7.00;3.78;;;;;;;;;;5057061;28;20052;-74
2021/09/05 05:50:11;;;;;;;6.53;4.85;;;;;;;;;;5056613;28;20055;-63
2021/09/05 05:52:38;;;;;;;4.68;4.10;;;;;;;;;;5056770;28;20041;-68
2021/09/05 05:55:04;;;;;;;5.05;4.25;;;;;;;;;;5056529;28;20033;-63
2021/09/05 05:57:30;;;;;;;5.85;3.95;;;;;;;;;;5056613;28;20024;-74
2021/09/05 05:59:56;;;;;;;4.40;3.70;;;;;;;;;;5056523;28;20075;-75
2021/09/05 06:02:22;;;;;;;5.72;3.67;;;;;;;;;;5056539;28;20119;-67
2021/09/05 06:04:48;;;;;;;6.13;4.13;;;;;;;;;;5056441;28;20078;-63
2021/09/05 06:07:14;;;;;;;3.95;3.40;;;;;;;;;;5056499;28;20416;-75
2021/09/05 06:09:40;;;;;;;4.90;3.92;;;;;;;;;;5056588;28;20024;-63
2021/09/05 06:12:07;;;;;;;5.20;3.85;;;;;;;;;;5056434;28;20057;-62
2021/09/05 06:14:33;;;;;;;7.30;3.42;;;;;;;;;;5056314;28;20033;-63
2021/09/05 06:16:59;;;;;;;5.00;3.72;;;;;;;;;;5056262;28;20056;-62
2021/09/05 06:19:25;;;;;;;3.80;3.40;;;;;;;;;;5055892;28;20502;-63
2021/09/05 06:21:51;;;;;;;5.03;3.47;;;;;;;;;;5059955;28;20083;-63
2021/09/05 06:24:17;;;;;;;4.53;3.63;;;;;;;;;;5076314;28;20078;-63
2021/09/05 06:26:43;;;;;;;4.22;3.70;;;;;;;;;;5076162;28;20024;-64
2021/09/05 06:29:09;;;;;;;4.03;3.63;;;;;;;;;;5076026;28;20376;-65
2021/09/05 06:31:35;;;;;;;4.18;3.75;;;;;;;;;;5075970;28;20086;-63
2021/09/05 06:34:01;;;;;;;5.07;3.47;;;;;;;;;;5076126;28;20411;-67
2021/09/05 06:36:27;;;;;;;4.60;3.88;;;;;;;;;;5057734;28;20032;-63
2021/09/05 06:38:53;;;;;;;4.65;3.67;;;;;;;;;;5075702;28;20035;-63
2021/09/05 06:41:19;;;;;;;3.80;3.47;;;;;;;;;;5076061;28;20332;-63
2021/09/05 06:43:45;;;;;;;4.90;3.85;;;;;;;;;;5075881;28;20021;-71
2021/09/05 06:46:12;;;;;;;4.00;3.60;;;;;;;;;;5075690;28;20025;-63
2021/09/05 06:48:38;;;;;;;4.40;3.50;;;;;;;;;;5075755;28;20025;-63
2021/09/05 06:51:04;;;;;;;4.38;2.80;;;;;;;;;;5075613;28;20056;-63
2021/09/05 06:53:30;;;;;;;3.80;3.13;;;;;;;;;;5075667;28;20072;-63
2021/09/05 06:55:56;;;;;;;4.35;3.58;;;;;;;;;;5074753;28;20021;-76
2021/09/05 06:58:22;;;;;;;3.78;3.33;;;;;;;;;;5075556;28;20435;-63
2021/09/05 07:00:48;;;;;;;4.05;3.50;;;;;;;;;;5057495;28;20055;-63
2021/09/05 07:03:14;;;;;;;5.25;3.40;;;;;;;;;;5056962;28;20043;-63
2021/09/05 07:05:41;;;;;;;4.32;3.67;;;;;;;;;;5075544;28;20032;-75
2021/09/05 07:08:07;;;;;;;6.32;3.65;;;;;;;;;;5075437;28;20032;-67
2021/09/05 07:10:33;;;;;;;3.85;3.45;;;;;;;;;;5075364;28;20021;-74
2021/09/05 07:12:59;;;;;;;4.93;3.60;;;;;;;;;;5075215;28;20033;-63
2021/09/05 07:15:25;;;;;;;5.65;3.88;;;;;;;;;;5075114;28;20422;-75
2021/09/05 07:17:51;;;;;;;5.05;3.83;;;;;;;;;;5074899;28;20028;-63
2021/09/05 07:20:17;;;;;;;3.92;3.15;;;;;;;;;;5075100;28;20036;-69
2021/09/05 07:22:43;;;;;;;4.25;3.30;;;;;;;;;;5064053;28;20084;-75
2021/09/05 07:25:09;;;;;;;4.63;3.50;;;;;;;;;;5054653;28;20039;-64
2021/09/05 07:27:35;;;;;;;4.47;3.38;;;;;;;;;;5055079;28;20368;-63
2021/09/05 07:30:01;;;;;;;3.45;3.10;;;;;;;;;;5036988;28;20445;-63
2021/09/05 07:32:27;;;;;;;3.60;3.03;;;;;;;;;;5055017;28;20464;-68
2021/09/05 07:34:53;;;;;;;4.43;3.80;;;;;;;;;;5054807;28;20029;-63
2021/09/05 07:37:19;;;;;;;8.45;3.67;;;;;;;;;;5054453;28;20115;-63
2021/09/05 07:39:45;;;;;;;4.35;3.40;;;;;;;;;;5054755;28;20040;-63
2021/09/05 07:42:11;;;;;;;3.47;3.17;;;;;;;;;;5054611;28;20021;-63
2021/09/05 07:44:37;;;;;;;3.30;3.00;;;;;;;;;;5054644;28;20040;-71
2021/09/05 07:47:03;;;;;;;6.22;3.72;;;;;;;;;;5036554;28;20025;-70
2021/09/05 07:49:29;;;;;;;4.88;3.55;;;;;;;;;;5054627;28;20063;-63
2021/09/05 07:51:55;;;;;;;4.03;3.42;;;;;;;;;;5054368;28;20052;-75
2021/09/05 07:54:21;;;;;;;4.53;3.50;;;;;;;;;;5054546;28;20037;-63
2021/09/05 07:56:47;;;;;;;5.90;3.72;;;;;;;;;;5054456;28;20809;-69
2021/09/05 07:59:13;;;;;;;5.10;3.50;;;;;;;;;;5054308;28;20041;-63
2021/09/05 08:01:39;;;;;;;5.05;3.92;;;;;;;;;;5054161;28;20025;-63
2021/09/05 08:04:05;;;;;;;8.13;3.88;;;;;;;;;;5054285;28;20060;-63
2021/09/05 08:06:31;;;;;;;5.32;3.90;;;;;;;;;;5036044;28;20052;-63
2021/09/05 08:08:58;;;;;;;4.75;3.65;;;;;;;;;;5054114;28;20024;-63
2021/09/05 08:11:24;;;;;;;4.57;3.55;;;;;;;;;;5054054;28;20032;-75
2021/09/05 08:13:50;;;;;;;6.32;3.85;;;;;;;;;;5054075;28;20036;-63
2021/09/05 08:16:16;;;;;;;11.75;4.15;;;;;;;;;;5036051;28;20025;-62
2021/09/05 08:18:42;;;;;;;7.60;4.28;;;;;;;;;;5036002;28;20033;-63
2021/09/05 08:21:09;;;;;;;6.13;4.28;;;;;;;;;;5053752;28;20021;-65
2021/09/05 08:23:35;;;;;;;6.78;3.95;;;;;;;;;;5053905;28;20052;-63
2021/09/05 08:26:02;;;;;;;8.13;4.05;;;;;;;;;;5053658;28;20030;-63
2021/09/05 08:28:28;;;;;;;6.40;3.90;;;;;;;;;;5036042;28;20025;-63
2021/09/05 08:30:54;;;;;;;4.95;3.97;;;;;;;;;;5053748;28;20017;-76
2021/09/05 08:33:20;;;;;;;6.03;4.22;;;;;;;;;;5053663;28;20386;-63
2021/09/05 08:35:46;;;;;;;6.97;4.05;;;;;;;;;;5035679;28;20110;-63
2021/09/05 08:38:13;;;;;;;7.55;4.63;;;;;;;;;;5053663;28;20044;-63
2021/09/05 08:40:49;;;;;;;6.60;4.05;;;;;;;;;;5053521;28;20464;-63
2021/09/05 08:43:15;;;;;;;5.68;4.15;;;;;;;;;;5053536;28;20040;-76
2021/09/05 08:45:45;;;;;;;5.43;3.95;;;;;;;;;;5053515;28;20017;-63
2021/09/05 08:48:13;;;;;;;5.78;3.97;;;;;;;;;;5053583;28;20017;-64
2021/09/05 08:50:39;;;;;;;4.63;3.55;;;;;;;;;;5053297;28;20025;-63
2021/09/05 08:53:05;;;;;;;8.98;4.75;;;;;;;;;;5053126;28;20556;-63
2021/09/05 08:55:31;;;;;;;5.53;4.35;;;;;;;;;;5053227;28;20103;-73
2021/09/05 08:57:57;;;;;;;7.20;4.32;;;;;;;;;;5053075;28;20025;-64
2021/09/05 09:00:23;;;;;;;6.60;4.72;;;;;;;;;;5052964;28;20087;-63
2021/09/05 09:02:49;;;;;;;6.13;4.43;;;;;;;;;;5053235;28;20474;-63
2021/09/05 09:05:15;;;;;;;8.95;4.88;;;;;;;;;;5052895;28;20028;-63
2021/09/05 09:07:48;;;;;;;7.57;4.85;;;;;;;;;;5053178;28;20033;-63
2021/09/05 09:10:14;;;;;;;7.03;4.47;;;;;;;;;;5052958;28;20021;-75
2021/09/05 09:12:41;;;;;;;7.00;4.78;;;;;;;;;;5053139;28;20036;-62
2021/09/05 09:15:24;;;;;;;7.68;4.95;;;;;;;;;;5053051;28;20115;-62
2021/09/05 09:17:51;;;;;;;7.97;4.93;;;;;;;;;;5052175;28;20468;-63
2021/09/05 09:20:31;;;;;;;6.43;4.00;;;;;;;;;;5052863;28;20048;-74
2021/09/05 09:23:07;;;;;;;7.47;4.38;;;;;;;;;;5065701;28;20045;-62
2021/09/05 09:25:33;;;;;;;7.93;4.50;;;;;;;;;;5054927;28;20024;-62
2021/09/05 09:27:59;;;;;;;6.07;4.18;;;;;;;;;;5072902;28;20145;-63
2021/09/05 09:30:34;;;;;;;8.60;4.65;;;;;;;;;;5054822;28;20429;-75
2021/09/05 09:33:00;;;;;;;7.82;4.70;;;;;;;;;;5055010;28;20082;-63
2021/09/05 09:35:26;;;;;;;6.97;4.85;;;;;;;;;;5072676;28;20036;-63
2021/09/05 09:37:52;;;;;;;7.97;4.88;;;;;;;;;;5072919;28;20024;-63
2021/09/05 09:40:25;;;;;;;5.03;4.35;;;;;;;;;;5072883;28;20024;-64
2021/09/05 09:42:51;;;;;;;6.18;4.55;;;;;;;;;;5072840;28;20024;-63
2021/09/05 09:45:18;;;;;;;6.45;4.78;;;;;;;;;;5072450;28;20017;-76
2021/09/05 09:47:45;;;;;;;9.30;4.50;;;;;;;;;;5072762;28;20029;-63
2021/09/05 09:50:11;;;;;;;7.50;4.20;;;;;;;;;;5054776;28;20074;-64
2021/09/05 09:52:38;;;;;;;7.78;5.40;;;;;;;;;;5072566;28;20120;-76
2021/09/05 09:55:04;;;;;;;9.00;4.63;;;;;;;;;;5072431;28;20056;-63
2021/09/05 09:57:30;;;;;;;8.50;5.05;;;;;;;;;;5072773;28;20024;-67
2021/09/05 09:59:56;;;;;;;7.32;4.40;;;;;;;;;;5072819;28;20031;-77
2021/09/05 10:02:25;;;;;;;9.05;4.70;;;;;;;;;;5072294;28;20055;-76
2021/09/05 10:04:53;;;;;;;8.57;5.25;;;;;;;;;;5072468;28;20476;-63
2021/09/05 10:07:19;;;;;;;8.18;5.15;;;;;;;;;;5072120;28;20028;-63
2021/09/05 10:09:49;;;;;;;6.82;4.30;;;;;;;;;;5054524;28;20031;-75
2021/09/05 10:12:16;;;;;;;9.27;5.40;;;;;;;;;;5054466;28;20419;-63
2021/09/05 10:14:44;;;;;;;8.63;4.68;;;;;;;;;;5054342;28;20380;-62
2021/09/05 10:17:11;;;;;;;7.78;5.18;;;;;;;;;;5072148;28;20620;-62
2021/09/05 10:19:41;;;;;;;8.25;4.57;;;;;;;;;;5072121;28;20488;-63
2021/09/05 10:22:07;;;;;;;7.85;4.85;;;;;;;;;;5066094;28;20059;-76
2021/09/05 10:25:02;;;;;;;8.90;5.28;;;;;;;;;;5052420;28;20100;-63
2021/09/05 10:27:29;;;;;;;7.70;5.10;;;;;;;;;;5035830;28;20111;-63
2021/09/05 10:30:08;;;;;;;8.63;5.40;;;;;;;;;;5052710;28;20021;-62
2021/09/05 10:32:43;;;;;;;10.32;4.90;;;;;;;;;;5038077;28;20028;-76
2021/09/05 10:35:28;;;;;;;7.45;5.05;;;;;;;;;;5055701;28;20580;-62
2021/09/05 10:38:09;;;;;;;6.75;4.88;;;;;;;;;;5037837;28;20040;-75
2021/09/05 10:40:39;;;;;;;8.57;5.53;;;;;;;;;;5037696;28;20051;-63
2021/09/05 10:43:05;;;;;;;8.52;5.18;;;;;;;;;;5055724;28;20098;-76
2021/09/05 10:45:33;;;;;;;8.20;4.97;;;;;;;;;;5055892;28;20029;-71
2021/09/05 10:47:59;;;;;;;10.25;5.47;;;;;;;;;;5055614;28;20021;-63
2021/09/05 10:50:35;;;;;;;8.55;5.35;;;;;;;;;;5037667;28;20385;-74
2021/09/05 10:53:14;;;;;;;8.70;5.10;;;;;;;;;;5055287;28;20029;-63
2021/09/05 10:56:06;;;;;;;10.10;5.40;;;;;;;;;;5055648;28;20017;-69
2021/09/05 10:58:39;;;;;;;6.03;4.63;;;;;;;;;;5035685;28;20036;-63
2021/09/05 11:01:28;;;;;;;6.55;4.80;;;;;;;;;;5055455;28;20437;-63
2021/09/05 11:04:16;;;;;;;10.48;5.60;;;;;;;;;;5050064;28;20068;-76
2021/09/05 11:06:44;;;;;;;8.75;5.28;;;;;;;;;;5055164;28;20033;-63
2021/09/05 11:09:20;;;;;;;8.73;5.53;;;;;;;;;;5055264;28;20017;-63
2021/09/05 11:11:59;;;;;;;7.35;4.78;;;;;;;;;;5055464;28;20017;-63
2021/09/05 11:17:09;;;;;;;8.50;5.03;;;;;;;;;;5055487;28;20033;-63
2021/09/05 11:19:36;;;;;;;7.65;5.57;;;;;;;;;;5054986;28;20040;-76
2021/09/05 11:22:05;;;;;;;10.27;5.68;;;;;;;;;;5054741;28;20049;-63
2021/09/05 11:24:31;;;;;;;9.90;5.85;;;;;;;;;;5037161;28;20025;-67
2021/09/05 11:26:59;;;;;;;6.88;4.72;;;;;;;;;;5054970;28;20102;-63
2021/09/05 11:29:25;;;;;;;7.82;5.45;;;;;;;;;;5055097;28;20025;-62
2021/09/05 11:31:51;;;;;;;8.30;5.68;;;;;;;;;;5055130;28;20059;-70
2021/09/05 11:34:17;;;;;;;10.70;5.53;;;;;;;;;;5054565;28;20037;-76
2021/09/05 11:36:44;;;;;;;8.02;5.40;;;;;;;;;;5054761;28;20031;-63
2021/09/05 11:39:10;;;;;;;9.95;5.13;;;;;;;;;;5054764;28;20141;-63
2021/09/05 11:41:36;;;;;;;7.55;5.32;;;;;;;;;;5054323;28;20163;-63
2021/09/05 11:44:02;;;;;;;9.40;5.50;;;;;;;;;;5054490;28;20541;-63
2021/09/05 11:46:28;;;;;;;8.75;5.35;;;;;;;;;;5054785;28;20123;-62
2021/09/05 11:48:55;;;;;;;9.55;5.32;;;;;;;;;;5054556;28;20049;-62
2021/09/05 11:51:21;;;;;;;8.25;5.22;;;;;;;;;;5054284;28;20036;-64
2021/09/05 11:53:57;;;;;;;9.23;5.53;;;;;;;;;;5054538;28;20029;-75
2021/09/05 11:56:23;;;;;;;8.32;5.18;;;;;;;;;;5054432;28;20074;-63
2021/09/05 11:58:49;;;;;;;10.77;5.95;;;;;;;;;;5054313;28;20062;-63
2021/09/05 12:01:15;;;;;;;9.23;5.30;;;;;;;;;;5054296;28;20025;-75
2021/09/05 12:03:41;;;;;;;10.45;5.93;;;;;;;;;;5054330;28;20043;-64
2021/09/05 12:06:10;;;;;;;7.40;5.20;;;;;;;;;;5036573;28;20036;-76
2021/09/05 12:08:37;;;;;;;10.50;5.25;;;;;;;;;;5053993;28;20029;-75
2021/09/05 12:11:04;;;;;;;8.82;5.00;;;;;;;;;;5054452;28;20040;-63
2021/09/05 12:13:46;;;;;;;6.57;5.25;;;;;;;;;;5053904;28;20025;-70
2021/09/05 12:16:19;;;;;;;7.00;5.00;;;;;;;;;;5054255;28;20039;-63
2021/09/05 12:18:58;;;;;;;7.93;5.18;;;;;;;;;;5054145;28;20021;-64
2021/09/05 12:21:31;;;;;;;7.93;5.45;;;;;;;;;;5053818;28;20036;-63
2021/09/05 12:23:57;;;;;;;7.47;5.35;;;;;;;;;;5053916;28;20041;-64
2021/09/05 12:26:23;;;;;;;7.97;5.22;;;;;;;;;;5054123;28;20036;-63
2021/09/05 12:29:01;;;;;;;7.18;4.93;;;;;;;;;;5053178;28;20025;-72
2021/09/05 12:31:41;;;;;;;6.38;4.85;;;;;;;;;;5053316;28;20025;-76
2021/09/05 12:34:07;;;;;;;8.18;5.53;;;;;;;;;;5053804;28;20364;-76
2021/09/05 12:36:33;;;;;;;7.70;5.30;;;;;;;;;;5053685;28;20747;-63
2021/09/05 12:38:59;;;;;;;12.38;5.40;;;;;;;;;;5053505;28;20114;-63
2021/09/05 12:41:26;;;;;;;7.18;5.10;;;;;;;;;;5053745;28;20380;-76
2021/09/05 12:43:52;;;;;;;6.93;5.07;;;;;;;;;;5053553;28;20103;-63
2021/09/05 12:46:19;;;;;;;8.20;5.65;;;;;;;;;;5053495;28;20112;-68
2021/09/05 12:48:47;;;;;;;6.53;4.90;;;;;;;;;;5053439;28;20025;-63
2021/09/05 12:51:15;;;;;;;7.00;4.85;;;;;;;;;;5035392;28;20025;-64
2021/09/05 12:54:03;;;;;;;7.32;5.20;;;;;;;;;;5052601;28;20036;-74
2021/09/05 12:56:29;;;;;;;8.80;5.40;;;;;;;;;;5053335;28;20025;-72
2021/09/05 12:58:55;;;;;;;7.72;5.13;;;;;;;;;;5035392;28;20021;-63
2021/09/05 13:01:22;;;;;;;7.45;5.15;;;;;;;;;;5053270;28;20033;-63
2021/09/05 13:03:48;;;;;;;6.75;5.10;;;;;;;;;;5053093;28;20021;-63
2021/09/05 13:06:14;;;;;;;9.48;4.93;;;;;;;;;;5053184;28;20032;-76
2021/09/05 13:08:40;;;;;;;8.48;4.90;;;;;;;;;;5053570;28;20021;-63
2021/09/05 13:11:06;;;;;;;7.75;4.28;;;;;;;;;;5052912;28;20101;-63
2021/09/05 13:13:32;;;;;;;7.63;4.60;;;;;;;;;;5052873;28;20025;-75
2021/09/05 13:15:58;;;;;;;8.20;4.68;;;;;;;;;;5053024;28;20040;-63
2021/09/05 13:18:24;;;;;;;6.15;4.82;;;;;;;;;;5034896;28;20021;-74
2021/09/05 13:20:50;;;;;;;5.72;4.45;;;;;;;;;;5053001;28;20112;-64
2021/09/05 13:23:16;;;;;;;9.07;5.05;;;;;;;;;;5068069;28;20049;-64
2021/09/05 13:25:42;;;;;;;6.97;4.85;;;;;;;;;;5054923;28;20028;-63
2021/09/05 13:28:08;;;;;;;8.27;4.90;;;;;;;;;;5072611;28;20246;-75
2021/09/05 13:30:33;;;;;;;6.50;4.93;;;;;;;;;;5072966;28;20031;-63
2021/09/05 13:32:59;;;;;;;8.43;4.85;;;;;;;;;;5072650;28;20037;-63
2021/09/05 13:35:25;;;;;;;7.22;4.55;;;;;;;;;;5072580;28;20025;-64
2021/09/05 13:37:51;;;;;;;6.95;4.97;;;;;;;;;;5072773;28;20063;-63
2021/09/05 13:40:17;;;;;;;7.53;5.05;;;;;;;;;;5073157;28;20453;-76
2021/09/05 13:42:43;;;;;;;6.90;4.88;;;;;;;;;;5072632;28;20028;-75
2021/09/05 13:45:09;;;;;;;7.80;4.60;;;;;;;;;;5054738;28;20020;-64
2021/09/05 13:47:35;;;;;;;8.10;4.80;;;;;;;;;;5072737;28;20073;-63
2021/09/05 13:50:02;;;;;;;6.90;4.60;;;;;;;;;;5072834;28;20111;-68
2021/09/05 13:52:28;;;;;;;8.00;4.95;;;;;;;;;;5072652;28;20028;-65
2021/09/05 13:54:55;;;;;;;7.45;4.68;;;;;;;;;;5072759;28;20028;-75
2021/09/05 13:57:21;;;;;;;8.35;4.75;;;;;;;;;;5072529;28;20044;-63
2021/09/05 13:59:47;;;;;;;7.22;4.68;;;;;;;;;;5054653;28;20029;-77
2021/09/05 14:02:13;;;;;;;7.38;4.75;;;;;;;;;;5072358;28;20093;-63
2021/09/05 14:04:39;;;;;;;7.05;4.32;;;;;;;;;;5056338;28;20360;-62
2021/09/05 14:07:05;;;;;;;6.80;4.57;;;;;;;;;;5076203;28;20126;-63
2021/09/05 14:09:31;;;;;;;7.97;5.15;;;;;;;;;;5076515;28;20451;-65
2021/09/05 14:11:57;;;;;;;7.35;4.90;;;;;;;;;;5076602;28;20107;-62
2021/09/05 14:14:23;;;;;;;8.82;4.70;;;;;;;;;;5076262;28;20112;-63
2021/09/05 14:16:49;;;;;;;7.78;4.53;;;;;;;;;;5076155;28;20476;-63
2021/09/05 14:19:15;;;;;;;7.50;4.75;;;;;;;;;;5076129;28;20047;-63
2021/09/05 14:21:40;;;;;;;7.32;4.60;;;;;;;;;;5058284;28;20115;-76
2021/09/05 14:24:07;;;;;;;9.85;5.10;;;;;;;;;;5058231;28;20090;-63
2021/09/05 14:26:33;;;;;;;8.13;5.13;;;;;;;;;;5058098;28;20021;-63
2021/09/05 14:29:05;;;;;;;6.85;4.60;;;;;;;;;;5076166;28;20036;-63
2021/09/05 14:55:55;;;;;;;6.82;4.68;;;;;;;;;;5076104;28;20031;-63
2021/09/05 14:58:23;;;;;;;6.90;4.45;;;;;;;;;;5075448;28;20020;-63
2021/09/05 15:01:13;;;;;;;6.47;4.60;;;;;;;;;;5075705;28;20032;-63
2021/09/05 15:11:18;;;;;;;6.43;4.82;;;;;;;;;;5075238;28;20117;-63
2021/09/05 15:13:44;;;;;;;7.18;5.18;;;;;;;;;;5075089;28;20029;-63
2021/09/05 15:16:10;;;;;;;6.15;4.57;;;;;;;;;;5074753;28;20093;-64